sensor_id;sensor_type;location;lat;lon;timestamp;P1;durP1;ratioP1;P2;durP2;ratioP2
16354;SDS011;8287;51.644;8.494;2024-01-30T00:01:50;4.40;;;3.65;;
16354;SDS011;8287;51.644;8.494;2024-01-30T00:04:18;6.82;;;4.28;;
16354;SDS011;8287;51.644;8.494;2024-01-30T00:06:45;4.78;;;3.92;;
16354;SDS011;8287;51.644;8.494;2024-01-30T00:09:12;8.27;;;4.93;;
16354;SDS011;8287;51.644;8.494;2024-01-30T00:11:38;6.05;;;3.95;;
16354;SDS011;8287;51.644;8.494;2024-01-30T00:14:05;4.97;;;4.20;;
16354;SDS011;8287;51.644;8.494;2024-01-30T00:16:32;6.18;;;4.90;;
16354;SDS011;8287;51.644;8.494;2024-01-30T00:18:59;7.93;;;4.50;;
16354;SDS011;8287;51.644;8.494;2024-01-30T00:21:28;7.70;;;5.03;;
16354;SDS011;8287;51.644;8.494;2024-01-30T00:23:55;6.60;;;4.45;;
16354;SDS011;8287;51.644;8.494;2024-01-30T00:26:21;5.35;;;4.22;;
16354;SDS011;8287;51.644;8.494;2024-01-30T00:28:48;6.25;;;4.10;;
16354;SDS011;8287;51.644;8.494;2024-01-30T00:31:14;5.72;;;4.90;;
16354;SDS011;8287;51.644;8.494;2024-01-30T00:33:41;7.18;;;4.28;;
16354;SDS011;8287;51.644;8.494;2024-01-30T00:36:08;5.75;;;4.93;;
16354;SDS011;8287;51.644;8.494;2024-01-30T00:38:37;6.25;;;4.60;;
16354;SDS011;8287;51.644;8.494;2024-01-30T00:41:03;6.05;;;4.20;;
16354;SDS011;8287;51.644;8.494;2024-01-30T00:43:32;5.55;;;5.00;;
16354;SDS011;8287;51.644;8.494;2024-01-30T00:45:59;5.63;;;4.72;;
16354;SDS011;8287;51.644;8.494;2024-01-30T00:48:25;8.18;;;5.45;;
16354;SDS011;8287;51.644;8.494;2024-01-30T00:50:52;9.02;;;5.55;;
16354;SDS011;8287;51.644;8.494;2024-01-30T00:53:19;6.38;;;5.28;;
16354;SDS011;8287;51.644;8.494;2024-01-30T00:55:47;7.85;;;5.50;;
16354;SDS011;8287;51.644;8.494;2024-01-30T00:58:13;6.38;;;5.55;;
16354;SDS011;8287;51.644;8.494;2024-01-30T01:00:40;7.13;;;5.93;;
16354;SDS011;8287;51.644;8.494;2024-01-30T01:03:06;6.82;;;5.90;;
16354;SDS011;8287;51.644;8.494;2024-01-30T01:05:33;7.80;;;5.85;;
16354;SDS011;8287;51.644;8.494;2024-01-30T01:08:00;5.78;;;5.18;;
16354;SDS011;8287;51.644;8.494;2024-01-30T01:10:27;8.98;;;5.88;;
16354;SDS011;8287;51.644;8.494;2024-01-30T01:12:55;6.80;;;5.38;;
16354;SDS011;8287;51.644;8.494;2024-01-30T01:15:21;7.18;;;5.80;;
16354;SDS011;8287;51.644;8.494;2024-01-30T01:17:48;8.05;;;5.78;;
16354;SDS011;8287;51.644;8.494;2024-01-30T01:20:14;8.00;;;6.25;;
16354;SDS011;8287;51.644;8.494;2024-01-30T01:22:41;7.78;;;5.78;;
16354;SDS011;8287;51.644;8.494;2024-01-30T01:25:08;9.30;;;6.25;;
16354;SDS011;8287;51.644;8.494;2024-01-30T01:27:35;8.93;;;5.95;;
16354;SDS011;8287;51.644;8.494;2024-01-30T01:30:08;9.18;;;6.28;;
16354;SDS011;8287;51.644;8.494;2024-01-30T01:32:36;9.48;;;6.18;;
16354;SDS011;8287;51.644;8.494;2024-01-30T01:35:03;8.35;;;5.78;;
16354;SDS011;8287;51.644;8.494;2024-01-30T01:37:30;7.25;;;4.97;;
16354;SDS011;8287;51.644;8.494;2024-01-30T01:39:57;6.63;;;5.70;;
16354;SDS011;8287;51.644;8.494;2024-01-30T01:42:23;6.40;;;5.18;;
16354;SDS011;8287;51.644;8.494;2024-01-30T01:44:50;6.60;;;5.15;;
16354;SDS011;8287;51.644;8.494;2024-01-30T01:47:18;7.78;;;6.13;;
16354;SDS011;8287;51.644;8.494;2024-01-30T01:49:44;7.28;;;6.25;;
16354;SDS011;8287;51.644;8.494;2024-01-30T01:52:11;7.68;;;5.85;;
16354;SDS011;8287;51.644;8.494;2024-01-30T01:54:38;9.05;;;6.82;;
16354;SDS011;8287;51.644;8.494;2024-01-30T01:57:04;10.75;;;7.40;;
16354;SDS011;8287;51.644;8.494;2024-01-30T01:59:31;9.48;;;6.57;;
16354;SDS011;8287;51.644;8.494;2024-01-30T02:01:58;9.98;;;6.25;;
16354;SDS011;8287;51.644;8.494;2024-01-30T02:04:28;7.95;;;6.20;;
16354;SDS011;8287;51.644;8.494;2024-01-30T02:06:55;7.05;;;5.63;;
16354;SDS011;8287;51.644;8.494;2024-01-30T02:09:21;8.57;;;5.13;;
16354;SDS011;8287;51.644;8.494;2024-01-30T02:11:48;8.45;;;5.38;;
16354;SDS011;8287;51.644;8.494;2024-01-30T02:14:15;10.77;;;5.82;;
16354;SDS011;8287;51.644;8.494;2024-01-30T02:16:41;13.55;;;5.82;;
16354;SDS011;8287;51.644;8.494;2024-01-30T02:19:08;8.68;;;5.00;;
16354;SDS011;8287;51.644;8.494;2024-01-30T02:21:36;5.38;;;4.88;;
16354;SDS011;8287;51.644;8.494;2024-01-30T02:24:02;9.50;;;4.88;;
16354;SDS011;8287;51.644;8.494;2024-01-30T02:26:30;6.72;;;5.20;;
16354;SDS011;8287;51.644;8.494;2024-01-30T02:28:58;8.50;;;5.20;;
16354;SDS011;8287;51.644;8.494;2024-01-30T02:31:24;11.07;;;6.40;;
16354;SDS011;8287;51.644;8.494;2024-01-30T02:33:51;7.88;;;4.93;;
16354;SDS011;8287;51.644;8.494;2024-01-30T02:36:18;6.97;;;5.28;;
16354;SDS011;8287;51.644;8.494;2024-01-30T02:38:45;7.90;;;5.60;;
16354;SDS011;8287;51.644;8.494;2024-01-30T02:41:12;7.95;;;5.30;;
16354;SDS011;8287;51.644;8.494;2024-01-30T02:43:39;10.48;;;5.80;;
16354;SDS011;8287;51.644;8.494;2024-01-30T02:46:05;10.10;;;5.40;;
16354;SDS011;8287;51.644;8.494;2024-01-30T02:48:32;9.77;;;5.22;;
16354;SDS011;8287;51.644;8.494;2024-01-30T02:50:58;9.10;;;5.63;;
16354;SDS011;8287;51.644;8.494;2024-01-30T02:53:25;11.10;;;5.78;;
16354;SDS011;8287;51.644;8.494;2024-01-30T02:55:53;5.35;;;4.82;;
16354;SDS011;8287;51.644;8.494;2024-01-30T02:58:19;6.22;;;5.43;;
16354;SDS011;8287;51.644;8.494;2024-01-30T03:00:46;13.20;;;5.78;;
16354;SDS011;8287;51.644;8.494;2024-01-30T03:03:13;8.07;;;5.90;;
16354;SDS011;8287;51.644;8.494;2024-01-30T03:05:39;9.30;;;5.28;;
16354;SDS011;8287;51.644;8.494;2024-01-30T03:08:06;9.70;;;5.05;;
16354;SDS011;8287;51.644;8.494;2024-01-30T03:10:32;7.25;;;4.65;;
16354;SDS011;8287;51.644;8.494;2024-01-30T03:13:00;11.95;;;5.75;;
16354;SDS011;8287;51.644;8.494;2024-01-30T03:15:27;7.03;;;5.13;;
16354;SDS011;8287;51.644;8.494;2024-01-30T03:17:53;7.20;;;5.43;;
16354;SDS011;8287;51.644;8.494;2024-01-30T03:20:20;11.50;;;6.05;;
16354;SDS011;8287;51.644;8.494;2024-01-30T03:22:47;6.15;;;4.93;;
16354;SDS011;8287;51.644;8.494;2024-01-30T03:25:13;8.15;;;5.55;;
16354;SDS011;8287;51.644;8.494;2024-01-30T03:27:40;7.55;;;4.38;;
16354;SDS011;8287;51.644;8.494;2024-01-30T03:30:08;8.45;;;5.13;;
16354;SDS011;8287;51.644;8.494;2024-01-30T03:32:35;8.68;;;5.60;;
16354;SDS011;8287;51.644;8.494;2024-01-30T03:35:02;8.27;;;5.22;;
16354;SDS011;8287;51.644;8.494;2024-01-30T03:37:29;6.68;;;4.78;;
16354;SDS011;8287;51.644;8.494;2024-01-30T03:39:55;10.15;;;5.13;;
16354;SDS011;8287;51.644;8.494;2024-01-30T03:42:23;7.30;;;5.75;;
16354;SDS011;8287;51.644;8.494;2024-01-30T03:44:49;7.28;;;5.45;;
16354;SDS011;8287;51.644;8.494;2024-01-30T03:47:18;7.28;;;5.63;;
16354;SDS011;8287;51.644;8.494;2024-01-30T03:49:45;6.72;;;4.60;;
16354;SDS011;8287;51.644;8.494;2024-01-30T03:52:11;6.35;;;4.93;;
16354;SDS011;8287;51.644;8.494;2024-01-30T03:54:38;6.63;;;5.00;;
16354;SDS011;8287;51.644;8.494;2024-01-30T03:57:04;7.55;;;4.88;;
16354;SDS011;8287;51.644;8.494;2024-01-30T03:59:31;8.27;;;4.72;;
16354;SDS011;8287;51.644;8.494;2024-01-30T04:01:57;8.32;;;5.10;;
16354;SDS011;8287;51.644;8.494;2024-01-30T04:04:26;6.78;;;5.00;;
16354;SDS011;8287;51.644;8.494;2024-01-30T04:06:52;7.97;;;4.80;;
16354;SDS011;8287;51.644;8.494;2024-01-30T04:09:19;7.53;;;5.38;;
16354;SDS011;8287;51.644;8.494;2024-01-30T04:11:45;10.27;;;5.20;;
16354;SDS011;8287;51.644;8.494;2024-01-30T04:14:12;5.70;;;4.80;;
16354;SDS011;8287;51.644;8.494;2024-01-30T04:16:38;11.00;;;4.55;;
16354;SDS011;8287;51.644;8.494;2024-01-30T04:19:05;8.05;;;4.60;;
16354;SDS011;8287;51.644;8.494;2024-01-30T04:21:33;6.18;;;4.35;;
16354;SDS011;8287;51.644;8.494;2024-01-30T04:23:59;9.35;;;5.32;;
16354;SDS011;8287;51.644;8.494;2024-01-30T04:26:26;11.98;;;5.38;;
16354;SDS011;8287;51.644;8.494;2024-01-30T04:28:52;11.48;;;5.20;;
16354;SDS011;8287;51.644;8.494;2024-01-30T04:31:19;7.20;;;5.07;;
16354;SDS011;8287;51.644;8.494;2024-01-30T04:33:45;6.00;;;4.53;;
16354;SDS011;8287;51.644;8.494;2024-01-30T04:36:12;8.43;;;5.60;;
16354;SDS011;8287;51.644;8.494;2024-01-30T04:38:40;8.65;;;4.82;;
16354;SDS011;8287;51.644;8.494;2024-01-30T04:41:07;5.20;;;4.25;;
16354;SDS011;8287;51.644;8.494;2024-01-30T04:43:33;8.10;;;5.25;;
16354;SDS011;8287;51.644;8.494;2024-01-30T04:46:00;6.13;;;4.40;;
16354;SDS011;8287;51.644;8.494;2024-01-30T04:48:26;9.70;;;5.28;;
16354;SDS011;8287;51.644;8.494;2024-01-30T04:50:53;4.63;;;4.18;;
16354;SDS011;8287;51.644;8.494;2024-01-30T04:53:21;5.22;;;4.68;;
16354;SDS011;8287;51.644;8.494;2024-01-30T04:55:49;7.07;;;4.75;;
16354;SDS011;8287;51.644;8.494;2024-01-30T04:58:15;6.60;;;4.05;;
16354;SDS011;8287;51.644;8.494;2024-01-30T05:00:42;5.50;;;4.40;;
16354;SDS011;8287;51.644;8.494;2024-01-30T05:03:08;9.27;;;5.50;;
16354;SDS011;8287;51.644;8.494;2024-01-30T05:05:35;7.75;;;5.03;;
16354;SDS011;8287;51.644;8.494;2024-01-30T05:08:01;7.90;;;3.95;;
16354;SDS011;8287;51.644;8.494;2024-01-30T05:10:28;9.25;;;4.50;;
16354;SDS011;8287;51.644;8.494;2024-01-30T05:12:56;6.43;;;4.55;;
16354;SDS011;8287;51.644;8.494;2024-01-30T05:15:22;7.00;;;4.75;;
16354;SDS011;8287;51.644;8.494;2024-01-30T05:17:49;6.85;;;4.60;;
16354;SDS011;8287;51.644;8.494;2024-01-30T05:20:16;7.50;;;4.47;;
16354;SDS011;8287;51.644;8.494;2024-01-30T05:22:42;6.38;;;3.88;;
16354;SDS011;8287;51.644;8.494;2024-01-30T05:25:10;7.70;;;4.45;;
16354;SDS011;8287;51.644;8.494;2024-01-30T05:27:37;5.55;;;4.38;;
16354;SDS011;8287;51.644;8.494;2024-01-30T05:30:05;7.97;;;4.13;;
16354;SDS011;8287;51.644;8.494;2024-01-30T05:32:33;4.80;;;4.07;;
16354;SDS011;8287;51.644;8.494;2024-01-30T05:34:59;5.82;;;4.57;;
16354;SDS011;8287;51.644;8.494;2024-01-30T05:37:26;6.30;;;4.32;;
16354;SDS011;8287;51.644;8.494;2024-01-30T05:39:52;6.85;;;3.72;;
16354;SDS011;8287;51.644;8.494;2024-01-30T05:42:19;7.95;;;4.78;;
16354;SDS011;8287;51.644;8.494;2024-01-30T05:44:45;6.25;;;3.92;;
16354;SDS011;8287;51.644;8.494;2024-01-30T05:47:13;5.28;;;4.00;;
16354;SDS011;8287;51.644;8.494;2024-01-30T05:49:40;6.53;;;3.53;;
16354;SDS011;8287;51.644;8.494;2024-01-30T05:52:07;8.00;;;4.03;;
16354;SDS011;8287;51.644;8.494;2024-01-30T05:54:34;5.82;;;4.10;;
16354;SDS011;8287;51.644;8.494;2024-01-30T05:57:01;6.05;;;4.03;;
16354;SDS011;8287;51.644;8.494;2024-01-30T05:59:28;6.93;;;4.13;;
16354;SDS011;8287;51.644;8.494;2024-01-30T06:01:54;4.60;;;3.75;;
16354;SDS011;8287;51.644;8.494;2024-01-30T06:04:22;4.75;;;3.92;;
16354;SDS011;8287;51.644;8.494;2024-01-30T06:06:49;4.50;;;3.58;;
16354;SDS011;8287;51.644;8.494;2024-01-30T06:09:15;4.93;;;3.78;;
16354;SDS011;8287;51.644;8.494;2024-01-30T06:11:42;6.25;;;4.03;;
16354;SDS011;8287;51.644;8.494;2024-01-30T06:14:09;5.90;;;4.05;;
16354;SDS011;8287;51.644;8.494;2024-01-30T06:16:35;6.35;;;3.80;;
16354;SDS011;8287;51.644;8.494;2024-01-30T06:19:02;5.60;;;3.72;;
16354;SDS011;8287;51.644;8.494;2024-01-30T06:21:29;6.40;;;3.42;;
16354;SDS011;8287;51.644;8.494;2024-01-30T06:23:57;4.45;;;3.88;;
16354;SDS011;8287;51.644;8.494;2024-01-30T06:26:23;7.43;;;4.28;;
16354;SDS011;8287;51.644;8.494;2024-01-30T06:28:50;5.35;;;4.00;;
16354;SDS011;8287;51.644;8.494;2024-01-30T06:31:16;6.00;;;3.53;;
16354;SDS011;8287;51.644;8.494;2024-01-30T06:33:43;4.53;;;4.05;;
16354;SDS011;8287;51.644;8.494;2024-01-30T06:36:09;4.97;;;3.97;;
16354;SDS011;8287;51.644;8.494;2024-01-30T06:38:37;7.57;;;3.40;;
16354;SDS011;8287;51.644;8.494;2024-01-30T06:41:04;5.13;;;4.05;;
16354;SDS011;8287;51.644;8.494;2024-01-30T06:43:30;5.97;;;4.28;;
16354;SDS011;8287;51.644;8.494;2024-01-30T06:45:57;5.47;;;3.97;;
16354;SDS011;8287;51.644;8.494;2024-01-30T06:48:24;6.25;;;3.55;;
16354;SDS011;8287;51.644;8.494;2024-01-30T06:50:52;6.13;;;3.88;;
16354;SDS011;8287;51.644;8.494;2024-01-30T06:53:19;5.72;;;4.18;;
16354;SDS011;8287;51.644;8.494;2024-01-30T06:55:47;6.07;;;3.65;;
16354;SDS011;8287;51.644;8.494;2024-01-30T06:58:13;5.40;;;3.70;;
16354;SDS011;8287;51.644;8.494;2024-01-30T07:00:40;4.30;;;3.60;;
16354;SDS011;8287;51.644;8.494;2024-01-30T07:03:06;6.40;;;3.65;;
16354;SDS011;8287;51.644;8.494;2024-01-30T07:05:33;3.70;;;3.40;;
16354;SDS011;8287;51.644;8.494;2024-01-30T07:08:00;4.78;;;3.55;;
16354;SDS011;8287;51.644;8.494;2024-01-30T07:10:26;7.15;;;3.97;;
16354;SDS011;8287;51.644;8.494;2024-01-30T07:12:54;6.25;;;3.63;;
16354;SDS011;8287;51.644;8.494;2024-01-30T07:15:20;6.63;;;4.03;;
16354;SDS011;8287;51.644;8.494;2024-01-30T07:17:47;6.35;;;3.25;;
16354;SDS011;8287;51.644;8.494;2024-01-30T07:20:13;4.47;;;2.95;;
16354;SDS011;8287;51.644;8.494;2024-01-30T07:22:40;5.93;;;3.50;;
16354;SDS011;8287;51.644;8.494;2024-01-30T07:25:07;5.15;;;3.20;;
16354;SDS011;8287;51.644;8.494;2024-01-30T07:27:34;4.82;;;4.15;;
16354;SDS011;8287;51.644;8.494;2024-01-30T07:30:02;3.88;;;3.45;;
16354;SDS011;8287;51.644;8.494;2024-01-30T07:32:29;5.75;;;3.55;;
16354;SDS011;8287;51.644;8.494;2024-01-30T07:34:56;6.32;;;3.45;;
16354;SDS011;8287;51.644;8.494;2024-01-30T07:37:22;4.88;;;2.97;;
16354;SDS011;8287;51.644;8.494;2024-01-30T07:39:49;5.22;;;3.40;;
16354;SDS011;8287;51.644;8.494;2024-01-30T07:42:16;4.13;;;3.33;;
16354;SDS011;8287;51.644;8.494;2024-01-30T07:44:42;3.95;;;3.45;;
16354;SDS011;8287;51.644;8.494;2024-01-30T07:47:10;4.85;;;3.58;;
16354;SDS011;8287;51.644;8.494;2024-01-30T07:49:37;4.25;;;3.75;;
16354;SDS011;8287;51.644;8.494;2024-01-30T07:52:04;4.95;;;3.30;;
16354;SDS011;8287;51.644;8.494;2024-01-30T07:54:31;7.70;;;3.72;;
16354;SDS011;8287;51.644;8.494;2024-01-30T08:03:44;5.53;;;3.63;;
16354;SDS011;8287;51.644;8.494;2024-01-30T08:06:10;5.25;;;3.28;;
16354;SDS011;8287;51.644;8.494;2024-01-30T08:08:36;4.45;;;3.33;;
16354;SDS011;8287;51.644;8.494;2024-01-30T08:11:03;3.58;;;3.05;;
16354;SDS011;8287;51.644;8.494;2024-01-30T08:13:30;3.28;;;2.97;;
16354;SDS011;8287;51.644;8.494;2024-01-30T08:15:56;3.80;;;3.25;;
16354;SDS011;8287;51.644;8.494;2024-01-30T08:18:23;3.10;;;2.80;;
16354;SDS011;8287;51.644;8.494;2024-01-30T08:20:51;3.85;;;2.80;;
16354;SDS011;8287;51.644;8.494;2024-01-30T08:23:17;4.15;;;3.10;;
16354;SDS011;8287;51.644;8.494;2024-01-30T08:25:44;5.97;;;3.38;;
16354;SDS011;8287;51.644;8.494;2024-01-30T08:28:10;5.88;;;3.00;;
16354;SDS011;8287;51.644;8.494;2024-01-30T08:30:37;7.25;;;3.00;;
16354;SDS011;8287;51.644;8.494;2024-01-30T08:33:04;6.65;;;2.95;;
16354;SDS011;8287;51.644;8.494;2024-01-30T08:35:30;3.17;;;2.80;;
16354;SDS011;8287;51.644;8.494;2024-01-30T08:37:59;3.78;;;3.40;;
16354;SDS011;8287;51.644;8.494;2024-01-30T08:40:26;4.60;;;3.15;;
16354;SDS011;8287;51.644;8.494;2024-01-30T08:42:53;3.58;;;3.03;;
16354;SDS011;8287;51.644;8.494;2024-01-30T08:45:20;5.07;;;3.20;;
16354;SDS011;8287;51.644;8.494;2024-01-30T08:47:46;6.60;;;2.67;;
16354;SDS011;8287;51.644;8.494;2024-01-30T08:50:13;4.53;;;2.80;;
16354;SDS011;8287;51.644;8.494;2024-01-30T08:52:40;4.43;;;3.30;;
16354;SDS011;8287;51.644;8.494;2024-01-30T08:55:08;3.90;;;2.80;;
16354;SDS011;8287;51.644;8.494;2024-01-30T08:57:34;3.50;;;2.97;;
16354;SDS011;8287;51.644;8.494;2024-01-30T09:00:01;4.10;;;3.33;;
16354;SDS011;8287;51.644;8.494;2024-01-30T09:02:31;3.95;;;2.97;;
16354;SDS011;8287;51.644;8.494;2024-01-30T09:04:58;4.00;;;2.72;;
16354;SDS011;8287;51.644;8.494;2024-01-30T09:07:24;4.05;;;3.50;;
16354;SDS011;8287;51.644;8.494;2024-01-30T09:09:51;6.13;;;2.65;;
16354;SDS011;8287;51.644;8.494;2024-01-30T09:12:19;4.70;;;3.10;;
16354;SDS011;8287;51.644;8.494;2024-01-30T09:14:45;5.97;;;3.22;;
16354;SDS011;8287;51.644;8.494;2024-01-30T09:17:12;4.05;;;3.28;;
16354;SDS011;8287;51.644;8.494;2024-01-30T09:19:38;3.35;;;3.05;;
16354;SDS011;8287;51.644;8.494;2024-01-30T09:22:06;5.40;;;3.55;;
16354;SDS011;8287;51.644;8.494;2024-01-30T09:24:33;3.38;;;2.97;;
16354;SDS011;8287;51.644;8.494;2024-01-30T09:26:59;4.60;;;3.60;;
16354;SDS011;8287;51.644;8.494;2024-01-30T09:29:27;5.55;;;3.47;;
16354;SDS011;8287;51.644;8.494;2024-01-30T09:31:54;4.18;;;3.25;;
16354;SDS011;8287;51.644;8.494;2024-01-30T09:34:20;4.78;;;3.00;;
16354;SDS011;8287;51.644;8.494;2024-01-30T09:36:47;4.65;;;3.42;;
16354;SDS011;8287;51.644;8.494;2024-01-30T09:39:13;4.15;;;2.75;;
16354;SDS011;8287;51.644;8.494;2024-01-30T09:41:44;6.32;;;3.40;;
16354;SDS011;8287;51.644;8.494;2024-01-30T09:44:12;3.95;;;2.55;;
16354;SDS011;8287;51.644;8.494;2024-01-30T09:46:43;3.97;;;3.13;;
16354;SDS011;8287;51.644;8.494;2024-01-30T09:49:11;3.38;;;2.97;;
16354;SDS011;8287;51.644;8.494;2024-01-30T09:51:39;4.68;;;3.03;;
16354;SDS011;8287;51.644;8.494;2024-01-30T09:54:06;8.10;;;3.20;;
16354;SDS011;8287;51.644;8.494;2024-01-30T09:56:36;4.25;;;2.70;;
16354;SDS011;8287;51.644;8.494;2024-01-30T09:59:02;4.07;;;2.95;;
16354;SDS011;8287;51.644;8.494;2024-01-30T10:01:29;4.20;;;3.28;;
16354;SDS011;8287;51.644;8.494;2024-01-30T10:03:58;5.28;;;3.78;;
16354;SDS011;8287;51.644;8.494;2024-01-30T10:06:25;15.13;;;11.90;;
16354;SDS011;8287;51.644;8.494;2024-01-30T10:08:52;10.95;;;7.25;;
16354;SDS011;8287;51.644;8.494;2024-01-30T10:11:19;6.07;;;3.67;;
16354;SDS011;8287;51.644;8.494;2024-01-30T10:13:46;3.30;;;3.00;;
16354;SDS011;8287;51.644;8.494;2024-01-30T10:16:13;4.85;;;2.40;;
16354;SDS011;8287;51.644;8.494;2024-01-30T10:18:40;4.47;;;3.05;;
16354;SDS011;8287;51.644;8.494;2024-01-30T10:21:08;4.65;;;3.10;;
16354;SDS011;8287;51.644;8.494;2024-01-30T10:23:35;5.57;;;3.65;;
16354;SDS011;8287;51.644;8.494;2024-01-30T10:26:02;4.05;;;2.75;;
16354;SDS011;8287;51.644;8.494;2024-01-30T10:28:29;4.32;;;2.80;;
16354;SDS011;8287;51.644;8.494;2024-01-30T10:30:59;7.22;;;2.90;;
16354;SDS011;8287;51.644;8.494;2024-01-30T10:33:26;6.80;;;3.40;;
16354;SDS011;8287;51.644;8.494;2024-01-30T10:35:54;3.28;;;2.63;;
16354;SDS011;8287;51.644;8.494;2024-01-30T10:38:27;3.15;;;2.80;;
16354;SDS011;8287;51.644;8.494;2024-01-30T10:40:56;7.63;;;3.10;;
16354;SDS011;8287;51.644;8.494;2024-01-30T10:43:23;4.05;;;3.10;;
16354;SDS011;8287;51.644;8.494;2024-01-30T10:45:54;5.38;;;3.38;;
16354;SDS011;8287;51.644;8.494;2024-01-30T10:48:26;18.83;;;3.55;;
16354;SDS011;8287;51.644;8.494;2024-01-30T10:50:56;4.50;;;2.90;;
16354;SDS011;8287;51.644;8.494;2024-01-30T10:53:27;3.03;;;2.70;;
16354;SDS011;8287;51.644;8.494;2024-01-30T10:55:55;5.15;;;3.13;;
16354;SDS011;8287;51.644;8.494;2024-01-30T10:58:22;4.10;;;2.78;;
16354;SDS011;8287;51.644;8.494;2024-01-30T11:00:49;6.40;;;3.50;;
16354;SDS011;8287;51.644;8.494;2024-01-30T11:03:17;3.60;;;2.92;;
16354;SDS011;8287;51.644;8.494;2024-01-30T11:05:48;5.25;;;3.35;;
16354;SDS011;8287;51.644;8.494;2024-01-30T11:08:22;3.85;;;2.95;;
16354;SDS011;8287;51.644;8.494;2024-01-30T11:10:54;5.38;;;2.78;;
16354;SDS011;8287;51.644;8.494;2024-01-30T11:13:21;5.45;;;3.28;;
16354;SDS011;8287;51.644;8.494;2024-01-30T11:15:48;3.65;;;2.88;;
16354;SDS011;8287;51.644;8.494;2024-01-30T11:18:22;5.80;;;3.70;;
16354;SDS011;8287;51.644;8.494;2024-01-30T11:20:49;6.30;;;3.20;;
16354;SDS011;8287;51.644;8.494;2024-01-30T11:23:16;4.55;;;3.15;;
16354;SDS011;8287;51.644;8.494;2024-01-30T11:25:43;8.20;;;3.22;;
16354;SDS011;8287;51.644;8.494;2024-01-30T11:28:14;3.95;;;2.70;;
16354;SDS011;8287;51.644;8.494;2024-01-30T11:30:41;5.32;;;3.03;;
16354;SDS011;8287;51.644;8.494;2024-01-30T11:33:08;4.53;;;3.05;;
16354;SDS011;8287;51.644;8.494;2024-01-30T11:35:37;4.18;;;2.58;;
16354;SDS011;8287;51.644;8.494;2024-01-30T11:38:05;4.65;;;2.92;;
16354;SDS011;8287;51.644;8.494;2024-01-30T11:40:33;3.50;;;2.90;;
16354;SDS011;8287;51.644;8.494;2024-01-30T11:43:00;3.35;;;2.67;;
16354;SDS011;8287;51.644;8.494;2024-01-30T11:45:29;6.10;;;3.15;;
16354;SDS011;8287;51.644;8.494;2024-01-30T11:47:57;3.92;;;2.95;;
16354;SDS011;8287;51.644;8.494;2024-01-30T11:50:25;5.95;;;2.50;;
16354;SDS011;8287;51.644;8.494;2024-01-30T11:52:52;5.43;;;3.10;;
16354;SDS011;8287;51.644;8.494;2024-01-30T11:55:20;4.00;;;2.80;;
16354;SDS011;8287;51.644;8.494;2024-01-30T11:57:46;6.82;;;4.40;;
16354;SDS011;8287;51.644;8.494;2024-01-30T12:00:14;5.03;;;3.33;;
16354;SDS011;8287;51.644;8.494;2024-01-30T12:02:43;5.40;;;3.03;;
16354;SDS011;8287;51.644;8.494;2024-01-30T12:05:11;9.55;;;3.03;;
16354;SDS011;8287;51.644;8.494;2024-01-30T12:07:39;4.47;;;3.25;;
16354;SDS011;8287;51.644;8.494;2024-01-30T12:10:05;3.65;;;2.95;;
16354;SDS011;8287;51.644;8.494;2024-01-30T12:12:34;5.80;;;2.95;;
16354;SDS011;8287;51.644;8.494;2024-01-30T12:15:01;4.18;;;3.05;;
16354;SDS011;8287;51.644;8.494;2024-01-30T12:17:28;5.40;;;3.42;;
16354;SDS011;8287;51.644;8.494;2024-01-30T12:20:04;5.28;;;3.10;;
16354;SDS011;8287;51.644;8.494;2024-01-30T12:22:32;5.00;;;2.95;;
16354;SDS011;8287;51.644;8.494;2024-01-30T12:25:00;3.90;;;3.20;;
16354;SDS011;8287;51.644;8.494;2024-01-30T12:27:26;4.97;;;3.30;;
16354;SDS011;8287;51.644;8.494;2024-01-30T12:29:56;4.13;;;3.25;;
16354;SDS011;8287;51.644;8.494;2024-01-30T12:32:23;11.07;;;3.88;;
16354;SDS011;8287;51.644;8.494;2024-01-30T12:34:49;5.40;;;3.45;;
16354;SDS011;8287;51.644;8.494;2024-01-30T12:37:17;8.68;;;3.45;;
16354;SDS011;8287;51.644;8.494;2024-01-30T12:39:47;9.95;;;3.40;;
16354;SDS011;8287;51.644;8.494;2024-01-30T12:42:14;4.72;;;3.50;;
16354;SDS011;8287;51.644;8.494;2024-01-30T12:44:41;6.68;;;3.60;;
16354;SDS011;8287;51.644;8.494;2024-01-30T12:47:08;6.25;;;3.97;;
16354;SDS011;8287;51.644;8.494;2024-01-30T12:49:35;4.10;;;3.20;;
16354;SDS011;8287;51.644;8.494;2024-01-30T12:52:01;7.18;;;3.70;;
16354;SDS011;8287;51.644;8.494;2024-01-30T12:54:29;8.60;;;4.35;;
16354;SDS011;8287;51.644;8.494;2024-01-30T12:56:56;3.78;;;3.33;;
16354;SDS011;8287;51.644;8.494;2024-01-30T12:59:23;4.43;;;3.58;;
16354;SDS011;8287;51.644;8.494;2024-01-30T13:01:49;5.30;;;3.13;;
16354;SDS011;8287;51.644;8.494;2024-01-30T13:04:17;5.82;;;3.90;;
16354;SDS011;8287;51.644;8.494;2024-01-30T13:06:44;9.40;;;4.00;;
16354;SDS011;8287;51.644;8.494;2024-01-30T13:09:10;4.55;;;3.40;;
16354;SDS011;8287;51.644;8.494;2024-01-30T13:11:38;7.50;;;3.85;;
16354;SDS011;8287;51.644;8.494;2024-01-30T13:14:05;7.82;;;3.65;;
16354;SDS011;8287;51.644;8.494;2024-01-30T13:16:32;10.10;;;4.43;;
16354;SDS011;8287;51.644;8.494;2024-01-30T13:18:58;6.43;;;3.58;;
16354;SDS011;8287;51.644;8.494;2024-01-30T13:21:26;5.88;;;3.53;;
16354;SDS011;8287;51.644;8.494;2024-01-30T13:23:53;8.10;;;3.70;;
16354;SDS011;8287;51.644;8.494;2024-01-30T13:26:20;6.00;;;4.07;;
16354;SDS011;8287;51.644;8.494;2024-01-30T13:28:48;5.57;;;4.00;;
16354;SDS011;8287;51.644;8.494;2024-01-30T13:31:15;6.43;;;4.18;;
16354;SDS011;8287;51.644;8.494;2024-01-30T13:33:42;10.55;;;4.25;;
16354;SDS011;8287;51.644;8.494;2024-01-30T13:36:09;10.73;;;4.20;;
16354;SDS011;8287;51.644;8.494;2024-01-30T13:38:36;7.13;;;4.30;;
16354;SDS011;8287;51.644;8.494;2024-01-30T13:41:04;12.00;;;4.68;;
16354;SDS011;8287;51.644;8.494;2024-01-30T13:43:31;8.40;;;4.22;;
16354;SDS011;8287;51.644;8.494;2024-01-30T13:45:59;7.05;;;5.13;;
16354;SDS011;8287;51.644;8.494;2024-01-30T13:48:25;6.25;;;4.28;;
16354;SDS011;8287;51.644;8.494;2024-01-30T13:50:52;8.30;;;3.97;;
16354;SDS011;8287;51.644;8.494;2024-01-30T13:53:19;8.40;;;4.65;;
16354;SDS011;8287;51.644;8.494;2024-01-30T13:55:46;6.97;;;4.30;;
16354;SDS011;8287;51.644;8.494;2024-01-30T13:58:12;7.47;;;4.53;;
16354;SDS011;8287;51.644;8.494;2024-01-30T14:00:39;5.60;;;3.55;;
16354;SDS011;8287;51.644;8.494;2024-01-30T14:03:06;6.50;;;3.90;;
16354;SDS011;8287;51.644;8.494;2024-01-30T14:05:33;9.65;;;4.40;;
16354;SDS011;8287;51.644;8.494;2024-01-30T14:08:00;12.77;;;5.15;;
16354;SDS011;8287;51.644;8.494;2024-01-30T14:10:27;9.40;;;4.90;;
16354;SDS011;8287;51.644;8.494;2024-01-30T14:12:53;6.88;;;5.13;;
16354;SDS011;8287;51.644;8.494;2024-01-30T14:15:21;6.30;;;4.55;;
16354;SDS011;8287;51.644;8.494;2024-01-30T14:17:48;10.05;;;5.05;;
16354;SDS011;8287;51.644;8.494;2024-01-30T14:20:16;10.88;;;5.10;;
16354;SDS011;8287;51.644;8.494;2024-01-30T14:22:42;5.60;;;4.18;;
16354;SDS011;8287;51.644;8.494;2024-01-30T14:25:09;8.57;;;4.63;;
16354;SDS011;8287;51.644;8.494;2024-01-30T14:27:36;8.85;;;4.60;;
16354;SDS011;8287;51.644;8.494;2024-01-30T14:30:03;7.05;;;5.00;;
16354;SDS011;8287;51.644;8.494;2024-01-30T14:32:30;11.88;;;6.15;;
16354;SDS011;8287;51.644;8.494;2024-01-30T14:34:56;12.65;;;5.72;;
16354;SDS011;8287;51.644;8.494;2024-01-30T14:37:24;8.43;;;5.28;;
16354;SDS011;8287;51.644;8.494;2024-01-30T14:39:54;12.80;;;5.18;;
16354;SDS011;8287;51.644;8.494;2024-01-30T14:42:20;8.30;;;5.07;;
16354;SDS011;8287;51.644;8.494;2024-01-30T14:44:47;8.75;;;5.50;;
16354;SDS011;8287;51.644;8.494;2024-01-30T14:47:14;16.95;;;5.75;;
16354;SDS011;8287;51.644;8.494;2024-01-30T14:49:40;9.55;;;4.97;;
16354;SDS011;8287;51.644;8.494;2024-01-30T14:52:07;13.95;;;5.55;;
16354;SDS011;8287;51.644;8.494;2024-01-30T14:54:37;7.90;;;4.88;;
16354;SDS011;8287;51.644;8.494;2024-01-30T14:57:03;8.27;;;5.05;;
16354;SDS011;8287;51.644;8.494;2024-01-30T14:59:30;10.13;;;5.05;;
16354;SDS011;8287;51.644;8.494;2024-01-30T15:01:58;9.68;;;6.10;;
16354;SDS011;8287;51.644;8.494;2024-01-30T15:04:24;10.90;;;4.93;;
16354;SDS011;8287;51.644;8.494;2024-01-30T15:06:51;13.20;;;5.10;;